Maersk Bulan — 9V7693 — position and weather

sailwx.info

Track history (hours):
 
Tides and Currents Weather Stations Pressure Air Temp Water Temp Dewpoint Dewpoint Depression Visibility Wind Speed Wind Dir Waves Ship Positions

Maersk Bulan

Last reported at 2017-Nov-16 21:57 UTC. Time now 2017-Nov-23 12:59 UTC.
Position N 44°43' E 037°49'.

Length 223 m; draft 11.3 m.

Type: Ship (hazmat cat A). MMSI: 563455000.

Date/timePositionNaut miles runAvg speedWind from/ knotsBaromVisibWave heightAir tempDewpointWater temp
2017-Nov-16 21:57N 44°43' E 037°49'0 0.0
2017-Nov-16 21:30N 44°43' E 037°49'0 0.0
2017-Nov-16 21:00N 44°43' E 037°49'0 0.0
2017-Nov-16 20:30N 44°43' E 037°49'0 0.0
2017-Nov-16 19:45N 44°43' E 037°49'0 0.0
2017-Nov-16 19:30N 44°43' E 037°49'0 0.0
2017-Nov-16 19:00N 44°43' E 037°49'0 0.0
2017-Nov-16 18:30N 44°43' E 037°49'0 0.0
2017-Nov-16 18:00N 44°43' E 037°49'0 0.0
2017-Nov-16 17:30N 44°43' E 037°49'0 0.0
2017-Nov-16 17:00N 44°43' E 037°49'0 0.0
2017-Nov-16 16:30N 44°43' E 037°49'0 0.0
2017-Nov-16 16:00N 44°43' E 037°49'0 0.0
2017-Nov-16 15:30N 44°43' E 037°49'0 0.0
2017-Nov-16 15:00N 44°43' E 037°49'0 0.0
2017-Nov-16 14:30N 44°43' E 037°49'0 0.0
2017-Nov-16 14:00N 44°43' E 037°49'0 0.0
2017-Nov-16 13:30N 44°43' E 037°49'0 0.0
2017-Nov-16 03:45N 44°43' E 037°49'0 0.0
2017-Nov-16 03:30N 44°43' E 037°49'0 0.0
2017-Nov-16 03:00N 44°43' E 037°49'0 0.0
2017-Nov-16 02:30N 44°43' E 037°49'0 0.0
2017-Nov-16 02:00N 44°43' E 037°49'0 0.0
2017-Nov-16 01:30N 44°43' E 037°49'0 0.0
2017-Nov-16 00:57N 44°43' E 037°49'0 0.0
2017-Nov-16 00:30N 44°43' E 037°49'0 0.0
2017-Nov-16 00:00N 44°43' E 037°49'0 0.0
2017-Nov-15 23:30N 44°43' E 037°49'0 0.0
2017-Nov-15 23:00N 44°43' E 037°49'0 0.0
2017-Nov-15 22:30N 44°43' E 037°49'0 0.0
2017-Nov-15 22:00N 44°43' E 037°49'0 0.0
2017-Nov-15 21:30N 44°43' E 037°49'0 0.0
2017-Nov-15 21:00N 44°43' E 037°49'0 0.0
2017-Nov-15 20:30N 44°43' E 037°49'0 0.0
2017-Nov-15 20:00N 44°43' E 037°49'0 1.0
2017-Nov-15 19:30N 44°43' E 037°48'3 6.7
2017-Nov-15 19:00N 44°40' E 037°50'4 7.0
2017-Nov-15 18:30N 44°37' E 037°52'4 8.8
2017-Nov-15 18:00N 44°32' E 037°51'2 3.8
2017-Nov-15 17:30N 44°31' E 037°50'0 0.8
2017-Nov-15 17:00N 44°31' E 037°50'2 4.2
2017-Nov-15 16:30N 44°33' E 037°49'611.7
2017-Nov-15 16:01N 44°38' E 037°51'1 1.3
2017-Nov-15 15:30N 44°38' E 037°52'3 5.2
2017-Nov-15 15:01N 44°35' E 037°51'7 7.0
2017-Nov-15 13:58N 44°30' E 037°44'1020.0
2017-Nov-15 13:27N 44°26' E 037°31'920.6
2017-Nov-15 13:00N 44°22' E 037°19'29618.0
2017-Nov-14 20:33N 46°24' E 030°55'220.0
2017-Nov-14 20:28N 46°26' E 030°55'715.6
2017-Nov-14 20:00N 46°33' E 030°57'4 7.2
2017-Nov-14 19:30N 46°35' E 031°01'4 0.1
2017-Nov-13 02:00N 46°31' E 030°58'1 0.2
2017-Nov-12 22:10N 46°31' E 030°59'0 0.3
2017-Nov-12 21:55N 46°31' E 030°59'0 0.2
2017-Nov-12 21:28N 46°31' E 030°59'0 0.0
2017-Nov-12 20:52N 46°31' E 030°59'0 0.0
2017-Nov-12 20:25N 46°31' E 030°59'0 0.0
2017-Nov-12 19:55N 46°31' E 030°59'0 0.0
2017-Nov-12 19:22N 46°31' E 030°59'0 0.1
2017-Nov-12 18:55N 46°31' E 030°59'0 0.0
2017-Nov-12 18:19N 46°31' E 030°59'0 0.0
2017-Nov-12 17:58N 46°31' E 030°59'0 0.0
2017-Nov-12 17:28N 46°31' E 030°59'0 0.0
2017-Nov-12 16:49N 46°31' E 030°59'0 0.0
2017-Nov-12 16:28N 46°31' E 030°59'0 0.0
2017-Nov-12 15:58N 46°31' E 030°59'0 0.0
2017-Nov-12 15:22N 46°31' E 030°59'0 0.0
2017-Nov-12 14:49N 46°31' E 030°59'0 0.0
2017-Nov-12 14:01N 46°31' E 030°59'0 0.1
2017-Nov-12 13:58N 46°31' E 030°59'0 0.0
2017-Nov-12 13:19N 46°31' E 030°59'0 0.0
2017-Nov-12 12:55N 46°31' E 030°59'0 0.0
2017-Nov-12 12:22N 46°31' E 030°59'0 0.0
2017-Nov-12 11:40N 46°31' E 030°59'0 0.0
2017-Nov-12 11:04N 46°31' E 030°59'0 0.1
2017-Nov-12 06:25N 46°31' E 030°58'4 9.5
2017-Nov-12 05:59N 46°27' E 030°57'612.9
2017-Nov-12 05:30N 46°21' E 030°57'612.5
2017-Nov-12 05:00N 46°15' E 031°00'612.7
2017-Nov-12 04:30N 46°10' E 031°06'611.5
2017-Nov-12 04:00N 46°05' E 031°08'812.7
2017-Nov-12 03:23N 45°57' E 031°04'118 8.3
2017-Nov-11 13:04N 44°01' E 030°28'0 1.2
2017-Nov-11 12:59N 44°01' E 030°28'1 1.3
2017-Nov-11 12:28N 44°01' E 030°27'  
Track history (hours):
 
Tides and Currents Weather Stations Pressure Air Temp Water Temp Dewpoint Dewpoint Depression Visibility Wind Speed Wind Dir Waves Ship Positions

Maersk Bulan

Last reported at 2017-Nov-16 21:57 UTC. Time now 2017-Nov-23 12:59 UTC.
Position N 44°43' E 037°49'.

Length 223 m; draft 11.3 m.

Type: Ship (hazmat cat A). MMSI: 563455000.

Date/timePositionNaut miles runAvg speedWind from/ knotsBaromVisibWave heightAir tempDewpointWater temp
2017-Nov-16 21:57N 44°43' E 037°49'0 0.0
2017-Nov-16 21:30N 44°43' E 037°49'0 0.0
2017-Nov-16 21:00N 44°43' E 037°49'0 0.0
2017-Nov-16 20:30N 44°43' E 037°49'0 0.0
2017-Nov-16 19:45N 44°43' E 037°49'0 0.0
2017-Nov-16 19:30N 44°43' E 037°49'0 0.0
2017-Nov-16 19:00N 44°43' E 037°49'0 0.0
2017-Nov-16 18:30N 44°43' E 037°49'0 0.0
2017-Nov-16 18:00N 44°43' E 037°49'0 0.0
2017-Nov-16 17:30N 44°43' E 037°49'0 0.0
2017-Nov-16 17:00N 44°43' E 037°49'0 0.0
2017-Nov-16 16:30N 44°43' E 037°49'0 0.0
2017-Nov-16 16:00N 44°43' E 037°49'0 0.0
2017-Nov-16 15:30N 44°43' E 037°49'0 0.0
2017-Nov-16 15:00N 44°43' E 037°49'0 0.0
2017-Nov-16 14:30N 44°43' E 037°49'0 0.0
2017-Nov-16 14:00N 44°43' E 037°49'0 0.0
2017-Nov-16 13:30N 44°43' E 037°49'0 0.0
2017-Nov-16 03:45N 44°43' E 037°49'0 0.0
2017-Nov-16 03:30N 44°43' E 037°49'0 0.0
2017-Nov-16 03:00N 44°43' E 037°49'0 0.0
2017-Nov-16 02:30N 44°43' E 037°49'0 0.0
2017-Nov-16 02:00N 44°43' E 037°49'0 0.0
2017-Nov-16 01:30N 44°43' E 037°49'0 0.0
2017-Nov-16 00:57N 44°43' E 037°49'0 0.0
2017-Nov-16 00:30N 44°43' E 037°49'0 0.0
2017-Nov-16 00:00N 44°43' E 037°49'0 0.0
2017-Nov-15 23:30N 44°43' E 037°49'0 0.0
2017-Nov-15 23:00N 44°43' E 037°49'0 0.0
2017-Nov-15 22:30N 44°43' E 037°49'0 0.0
2017-Nov-15 22:00N 44°43' E 037°49'0 0.0
2017-Nov-15 21:30N 44°43' E 037°49'0 0.0
2017-Nov-15 21:00N 44°43' E 037°49'0 0.0
2017-Nov-15 20:30N 44°43' E 037°49'0 0.0
2017-Nov-15 20:00N 44°43' E 037°49'0 1.0
2017-Nov-15 19:30N 44°43' E 037°48'3 6.7
2017-Nov-15 19:00N 44°40' E 037°50'4 7.0
2017-Nov-15 18:30N 44°37' E 037°52'4 8.8
2017-Nov-15 18:00N 44°32' E 037°51'2 3.8
2017-Nov-15 17:30N 44°31' E 037°50'0 0.8
2017-Nov-15 17:00N 44°31' E 037°50'2 4.2
2017-Nov-15 16:30N 44°33' E 037°49'611.7
2017-Nov-15 16:01N 44°38' E 037°51'1 1.3
2017-Nov-15 15:30N 44°38' E 037°52'3 5.2
2017-Nov-15 15:01N 44°35' E 037°51'7 7.0
2017-Nov-15 13:58N 44°30' E 037°44'1020.0
2017-Nov-15 13:27N 44°26' E 037°31'920.6
2017-Nov-15 13:00N 44°22' E 037°19'29618.0
2017-Nov-14 20:33N 46°24' E 030°55'220.0
2017-Nov-14 20:28N 46°26' E 030°55'715.6
2017-Nov-14 20:00N 46°33' E 030°57'4 7.2
2017-Nov-14 19:30N 46°35' E 031°01'4 0.1
2017-Nov-13 02:00N 46°31' E 030°58'1 0.2
2017-Nov-12 22:10N 46°31' E 030°59'0 0.3
2017-Nov-12 21:55N 46°31' E 030°59'0 0.2
2017-Nov-12 21:28N 46°31' E 030°59'0 0.0
2017-Nov-12 20:52N 46°31' E 030°59'0 0.0
2017-Nov-12 20:25N 46°31' E 030°59'0 0.0
2017-Nov-12 19:55N 46°31' E 030°59'0 0.0
2017-Nov-12 19:22N 46°31' E 030°59'0 0.1
2017-Nov-12 18:55N 46°31' E 030°59'0 0.0
2017-Nov-12 18:19N 46°31' E 030°59'0 0.0
2017-Nov-12 17:58N 46°31' E 030°59'0 0.0
2017-Nov-12 17:28N 46°31' E 030°59'0 0.0
2017-Nov-12 16:49N 46°31' E 030°59'0 0.0
2017-Nov-12 16:28N 46°31' E 030°59'0 0.0
2017-Nov-12 15:58N 46°31' E 030°59'0 0.0
2017-Nov-12 15:22N 46°31' E 030°59'0 0.0
2017-Nov-12 14:49N 46°31' E 030°59'0 0.0
2017-Nov-12 14:01N 46°31' E 030°59'0 0.1
2017-Nov-12 13:58N 46°31' E 030°59'0 0.0
2017-Nov-12 13:19N 46°31' E 030°59'0 0.0
2017-Nov-12 12:55N 46°31' E 030°59'0 0.0
2017-Nov-12 12:22N 46°31' E 030°59'0 0.0
2017-Nov-12 11:40N 46°31' E 030°59'0 0.0
2017-Nov-12 11:04N 46°31' E 030°59'0 0.1
2017-Nov-12 06:25N 46°31' E 030°58'4 9.5
2017-Nov-12 05:59N 46°27' E 030°57'612.9
2017-Nov-12 05:30N 46°21' E 030°57'612.5
2017-Nov-12 05:00N 46°15' E 031°00'612.7
2017-Nov-12 04:30N 46°10' E 031°06'611.5
2017-Nov-12 04:00N 46°05' E 031°08'812.7
2017-Nov-12 03:23N 45°57' E 031°04'118 8.3
2017-Nov-11 13:04N 44°01' E 030°28'0 1.2
2017-Nov-11 12:59N 44°01' E 030°28'1 1.3
2017-Nov-11 12:28N 44°01' E 030°27'  

Dump ship's entire track history